ANDO2: Washita River, OK

Data processed at Thu May 23 2019 23:50


All information presented herein is the property of the government of the United States of America and may be revised or deleted at any time without prior notice.
Dissemination of this information without the expressed written consent of the Public Affairs Office, Tulsa District U.S. Army Corps of Engineers is strictly prohibited.
These data are gathered electronically and, as presented, have not undergone any form of quality control. These data are not guaranteed to be valid or correct.
Go to home page.
Go to station list.
Go to home page.

Upstream stations:

Downstream station:
Previous Day
Next Day
Current Day
    
SHEF ID:       ANDO2     Washita River at Anadarko, OK
STATION TYPE:  
Regulating: Stage =    19.00, Flow =     6257

               PRECIP PRECIP(A)     STAGE  RIV-FLOW  BAT-LOAD
                   in        in        ft       cfs      volt
              Ccp-Rev   Ccp-Rev   Ccp-Rev   Ccp-Rev   Ccp-Rev
(US/Central)
05/23 00:00      0.00      0.00     18.03      5466     12.73
05/23 01:00      0.00      0.00     18.04      5474     12.73
05/23 02:00      0.00      0.00     18.07      5497     12.73
05/23 03:00      0.00      0.00     18.07      5497     12.73
05/23 04:00      0.00      0.00     18.11      5528     12.65
05/23 05:00      0.00      0.00     18.14      5551     12.65
05/23 06:00      0.00      0.00     18.18      5582     12.65
05/23 07:00      0.00      0.00     18.15      5559     12.65
05/23 08:00      0.00      0.00     18.18      5582     13.21
05/23 09:00      0.00      0.00     18.25      5636     13.44
05/23 10:00      0.00      0.00     18.23      5621     13.53
05/23 11:00      0.00      0.00     18.24      5628     13.44
05/23 12:00      0.00      0.00     18.34      5706     13.37
05/23 13:00      0.00      0.00     18.36      5722     13.37
05/23 14:00      0.00      0.00     18.36      5722     13.53
05/23 15:00      0.00      0.00     18.38      5738     13.37
05/23 16:00      0.00      0.00     18.30      5675     14.16
05/23 17:00      0.00      0.00     18.40      5753     13.37
05/23 18:00      0.00      0.00     18.43      5777     13.37
05/23 19:00      0.00      0.00     18.37      5730     13.37
05/23 20:00      0.00      0.00     18.43      5777     13.44
05/23 21:00      0.00      0.00     18.56      5879     13.05
05/23 22:00      0.00      0.00     18.55      5871     12.81
05/23 23:00      0.00      0.00     18.53      5856     12.81